sensor_id;sensor_type;location;lat;lon;timestamp;P1;durP1;ratioP1;P2;durP2;ratioP2
64353;SDS011;50681;53.334;-6.536;2023-04-01T00:01:09;7.18;;;5.18;;
64353;SDS011;50681;53.334;-6.536;2023-04-01T00:03:43;9.30;;;5.70;;
64353;SDS011;50681;53.334;-6.536;2023-04-01T00:06:13;11.02;;;6.35;;
64353;SDS011;50681;53.334;-6.536;2023-04-01T00:08:40;11.20;;;5.57;;
64353;SDS011;50681;53.334;-6.536;2023-04-01T00:11:06;8.75;;;5.50;;
64353;SDS011;50681;53.334;-6.536;2023-04-01T00:13:32;6.53;;;5.17;;
64353;SDS011;50681;53.334;-6.536;2023-04-01T00:15:57;8.00;;;5.40;;
64353;SDS011;50681;53.334;-6.536;2023-04-01T00:18:23;10.90;;;5.40;;
64353;SDS011;50681;53.334;-6.536;2023-04-01T00:20:52;9.55;;;5.80;;
64353;SDS011;50681;53.334;-6.536;2023-04-01T00:23:20;10.75;;;5.05;;
64353;SDS011;50681;53.334;-6.536;2023-04-01T00:28:16;7.57;;;4.90;;
64353;SDS011;50681;53.334;-6.536;2023-04-01T00:33:09;7.93;;;5.20;;
64353;SDS011;50681;53.334;-6.536;2023-04-01T00:35:35;9.32;;;4.63;;
64353;SDS011;50681;53.334;-6.536;2023-04-01T00:38:01;7.77;;;5.77;;
64353;SDS011;50681;53.334;-6.536;2023-04-01T00:40:29;10.90;;;5.70;;
64353;SDS011;50681;53.334;-6.536;2023-04-01T00:42:57;11.23;;;6.47;;
64353;SDS011;50681;53.334;-6.536;2023-04-01T00:48:07;9.10;;;5.32;;
64353;SDS011;50681;53.334;-6.536;2023-04-01T00:50:36;9.93;;;4.70;;
64353;SDS011;50681;53.334;-6.536;2023-04-01T00:53:04;11.95;;;4.88;;
64353;SDS011;50681;53.334;-6.536;2023-04-01T00:55:32;11.60;;;5.20;;
64353;SDS011;50681;53.334;-6.536;2023-04-01T00:58:03;10.05;;;5.43;;
64353;SDS011;50681;53.334;-6.536;2023-04-01T01:00:32;18.05;;;5.10;;
64353;SDS011;50681;53.334;-6.536;2023-04-01T01:02:59;6.97;;;3.83;;
64353;SDS011;50681;53.334;-6.536;2023-04-01T01:11:08;12.02;;;4.80;;
64353;SDS011;50681;53.334;-6.536;2023-04-01T01:13:57;10.65;;;4.25;;
64353;SDS011;50681;53.334;-6.536;2023-04-01T01:16:31;8.90;;;4.20;;
64353;SDS011;50681;53.334;-6.536;2023-04-01T01:27:27;16.33;;;5.30;;
64353;SDS011;50681;53.334;-6.536;2023-04-01T01:35:13;16.23;;;5.97;;
64353;SDS011;50681;53.334;-6.536;2023-04-01T01:37:49;12.60;;;5.57;;
64353;SDS011;50681;53.334;-6.536;2023-04-01T01:40:21;13.85;;;6.00;;
64353;SDS011;50681;53.334;-6.536;2023-04-01T01:42:51;12.85;;;5.00;;
64353;SDS011;50681;53.334;-6.536;2023-04-01T01:45:19;12.07;;;5.38;;
64353;SDS011;50681;53.334;-6.536;2023-04-01T01:47:49;12.63;;;6.32;;
64353;SDS011;50681;53.334;-6.536;2023-04-01T01:50:17;11.65;;;5.72;;
64353;SDS011;50681;53.334;-6.536;2023-04-01T01:52:45;14.15;;;5.88;;
64353;SDS011;50681;53.334;-6.536;2023-04-01T01:55:30;17.63;;;6.63;;
64353;SDS011;50681;53.334;-6.536;2023-04-01T01:58:00;16.98;;;6.78;;
64353;SDS011;50681;53.334;-6.536;2023-04-01T02:00:31;12.80;;;5.60;;
64353;SDS011;50681;53.334;-6.536;2023-04-01T02:03:01;12.55;;;5.75;;
64353;SDS011;50681;53.334;-6.536;2023-04-01T02:05:28;17.02;;;6.63;;
64353;SDS011;50681;53.334;-6.536;2023-04-01T02:08:05;21.52;;;6.50;;
64353;SDS011;50681;53.334;-6.536;2023-04-01T02:10:39;14.77;;;5.95;;
64353;SDS011;50681;53.334;-6.536;2023-04-01T02:13:11;15.10;;;5.55;;
64353;SDS011;50681;53.334;-6.536;2023-04-01T02:15:54;13.05;;;5.68;;
64353;SDS011;50681;53.334;-6.536;2023-04-01T02:18:28;15.73;;;5.63;;
64353;SDS011;50681;53.334;-6.536;2023-04-01T02:20:55;12.82;;;6.15;;
64353;SDS011;50681;53.334;-6.536;2023-04-01T02:23:24;16.45;;;5.80;;
64353;SDS011;50681;53.334;-6.536;2023-04-01T02:25:51;11.93;;;6.15;;
64353;SDS011;50681;53.334;-6.536;2023-04-01T02:28:17;19.73;;;6.05;;
64353;SDS011;50681;53.334;-6.536;2023-04-01T02:30:45;11.70;;;5.60;;
64353;SDS011;50681;53.334;-6.536;2023-04-01T02:33:16;11.57;;;4.80;;
64353;SDS011;50681;53.334;-6.536;2023-04-01T02:35:42;8.68;;;4.30;;
64353;SDS011;50681;53.334;-6.536;2023-04-01T02:38:08;10.75;;;5.00;;
64353;SDS011;50681;53.334;-6.536;2023-04-01T02:40:40;9.63;;;5.13;;
64353;SDS011;50681;53.334;-6.536;2023-04-01T02:43:08;15.40;;;5.40;;
64353;SDS011;50681;53.334;-6.536;2023-04-01T02:45:33;11.90;;;5.77;;
64353;SDS011;50681;53.334;-6.536;2023-04-01T02:47:59;14.73;;;5.35;;
64353;SDS011;50681;53.334;-6.536;2023-04-01T02:50:26;11.60;;;5.30;;
64353;SDS011;50681;53.334;-6.536;2023-04-01T02:52:52;11.37;;;4.47;;
64353;SDS011;50681;53.334;-6.536;2023-04-01T02:58:11;14.02;;;5.20;;
64353;SDS011;50681;53.334;-6.536;2023-04-01T03:00:36;12.40;;;5.13;;
64353;SDS011;50681;53.334;-6.536;2023-04-01T03:03:02;9.95;;;4.47;;
64353;SDS011;50681;53.334;-6.536;2023-04-01T03:05:30;9.45;;;4.80;;
64353;SDS011;50681;53.334;-6.536;2023-04-01T03:07:57;8.50;;;4.05;;
64353;SDS011;50681;53.334;-6.536;2023-04-01T03:10:22;11.10;;;4.65;;
64353;SDS011;50681;53.334;-6.536;2023-04-01T03:12:48;12.37;;;4.63;;
64353;SDS011;50681;53.334;-6.536;2023-04-01T03:15:13;20.27;;;4.73;;
64353;SDS011;50681;53.334;-6.536;2023-04-01T03:20:07;12.20;;;4.35;;
64353;SDS011;50681;53.334;-6.536;2023-04-01T03:22:34;9.60;;;3.90;;
64353;SDS011;50681;53.334;-6.536;2023-04-01T03:27:26;10.95;;;3.97;;
64353;SDS011;50681;53.334;-6.536;2023-04-01T03:29:51;13.23;;;3.90;;
64353;SDS011;50681;53.334;-6.536;2023-04-01T03:32:20;10.23;;;4.20;;
64353;SDS011;50681;53.334;-6.536;2023-04-01T03:34:47;13.10;;;4.13;;
64353;SDS011;50681;53.334;-6.536;2023-04-01T03:37:13;11.20;;;3.92;;
64353;SDS011;50681;53.334;-6.536;2023-04-01T03:39:39;11.10;;;4.60;;
64353;SDS011;50681;53.334;-6.536;2023-04-01T03:42:07;12.98;;;4.28;;
64353;SDS011;50681;53.334;-6.536;2023-04-01T03:44:38;8.90;;;3.85;;
64353;SDS011;50681;53.334;-6.536;2023-04-01T03:47:06;16.75;;;4.97;;
64353;SDS011;50681;53.334;-6.536;2023-04-01T03:49:34;11.10;;;3.45;;
64353;SDS011;50681;53.334;-6.536;2023-04-01T03:51:59;17.13;;;4.60;;
64353;SDS011;50681;53.334;-6.536;2023-04-01T03:54:25;10.80;;;3.90;;
64353;SDS011;50681;53.334;-6.536;2023-04-01T03:56:53;21.73;;;4.27;;
64353;SDS011;50681;53.334;-6.536;2023-04-01T03:59:20;12.73;;;4.32;;
64353;SDS011;50681;53.334;-6.536;2023-04-01T04:01:48;9.20;;;4.30;;
64353;SDS011;50681;53.334;-6.536;2023-04-01T04:04:13;11.13;;;3.67;;
64353;SDS011;50681;53.334;-6.536;2023-04-01T04:06:39;9.35;;;4.75;;
64353;SDS011;50681;53.334;-6.536;2023-04-01T04:09:04;14.23;;;4.50;;
64353;SDS011;50681;53.334;-6.536;2023-04-01T04:11:30;9.43;;;4.37;;
64353;SDS011;50681;53.334;-6.536;2023-04-01T04:13:57;11.98;;;4.45;;
64353;SDS011;50681;53.334;-6.536;2023-04-01T04:16:23;10.67;;;4.27;;
64353;SDS011;50681;53.334;-6.536;2023-04-01T04:18:48;6.53;;;3.37;;
64353;SDS011;50681;53.334;-6.536;2023-04-01T04:21:14;11.20;;;4.50;;
64353;SDS011;50681;53.334;-6.536;2023-04-01T04:23:40;8.65;;;3.67;;
64353;SDS011;50681;53.334;-6.536;2023-04-01T04:26:07;9.30;;;4.05;;
64353;SDS011;50681;53.334;-6.536;2023-04-01T04:28:35;4.63;;;2.58;;
64353;SDS011;50681;53.334;-6.536;2023-04-01T04:31:01;8.70;;;3.03;;
64353;SDS011;50681;53.334;-6.536;2023-04-01T04:33:27;7.40;;;3.13;;
64353;SDS011;50681;53.334;-6.536;2023-04-01T04:35:54;4.70;;;3.03;;
64353;SDS011;50681;53.334;-6.536;2023-04-01T04:38:21;7.57;;;2.45;;
64353;SDS011;50681;53.334;-6.536;2023-04-01T04:40:46;6.13;;;2.17;;
64353;SDS011;50681;53.334;-6.536;2023-04-01T04:43:13;3.80;;;2.10;;
64353;SDS011;50681;53.334;-6.536;2023-04-01T04:45:40;9.13;;;2.50;;
64353;SDS011;50681;53.334;-6.536;2023-04-01T04:48:09;8.47;;;2.43;;
64353;SDS011;50681;53.334;-6.536;2023-04-01T04:50:41;6.47;;;2.30;;
64353;SDS011;50681;53.334;-6.536;2023-04-01T04:53:09;3.33;;;2.00;;
64353;SDS011;50681;53.334;-6.536;2023-04-01T04:55:35;4.85;;;2.22;;
64353;SDS011;50681;53.334;-6.536;2023-04-01T04:58:00;3.90;;;2.23;;
64353;SDS011;50681;53.334;-6.536;2023-04-01T05:00:26;6.70;;;2.28;;
64353;SDS011;50681;53.334;-6.536;2023-04-01T05:02:59;3.60;;;1.75;;
64353;SDS011;50681;53.334;-6.536;2023-04-01T05:05:24;4.10;;;2.17;;
64353;SDS011;50681;53.334;-6.536;2023-04-01T05:07:50;6.40;;;2.13;;
64353;SDS011;50681;53.334;-6.536;2023-04-01T05:10:16;4.17;;;1.80;;
64353;SDS011;50681;53.334;-6.536;2023-04-01T05:12:41;5.63;;;2.27;;
64353;SDS011;50681;53.334;-6.536;2023-04-01T05:15:07;4.60;;;2.30;;
64353;SDS011;50681;53.334;-6.536;2023-04-01T05:17:33;5.85;;;2.55;;
64353;SDS011;50681;53.334;-6.536;2023-04-01T05:19:59;4.72;;;2.45;;
64353;SDS011;50681;53.334;-6.536;2023-04-01T05:22:25;3.70;;;2.30;;
64353;SDS011;50681;53.334;-6.536;2023-04-01T05:24:51;5.53;;;3.25;;
64353;SDS011;50681;53.334;-6.536;2023-04-01T05:27:16;8.20;;;2.77;;
64353;SDS011;50681;53.334;-6.536;2023-04-01T05:29:42;6.53;;;3.30;;
64353;SDS011;50681;53.334;-6.536;2023-04-01T05:32:07;6.77;;;3.10;;
64353;SDS011;50681;53.334;-6.536;2023-04-01T05:34:33;6.97;;;3.53;;
64353;SDS011;50681;53.334;-6.536;2023-04-01T05:36:58;7.67;;;3.40;;
64353;SDS011;50681;53.334;-6.536;2023-04-01T05:39:24;6.57;;;2.80;;
64353;SDS011;50681;53.334;-6.536;2023-04-01T05:41:53;13.60;;;4.00;;
64353;SDS011;50681;53.334;-6.536;2023-04-01T05:44:22;7.18;;;3.47;;
64353;SDS011;50681;53.334;-6.536;2023-04-01T05:46:48;7.18;;;3.47;;
64353;SDS011;50681;53.334;-6.536;2023-04-01T05:49:13;7.43;;;3.70;;
64353;SDS011;50681;53.334;-6.536;2023-04-01T05:51:41;8.30;;;3.72;;
64353;SDS011;50681;53.334;-6.536;2023-04-01T05:54:07;5.70;;;3.33;;
64353;SDS011;50681;53.334;-6.536;2023-04-01T05:56:32;4.63;;;2.70;;
64353;SDS011;50681;53.334;-6.536;2023-04-01T05:58:57;9.73;;;4.10;;
64353;SDS011;50681;53.334;-6.536;2023-04-01T06:01:23;6.57;;;2.90;;
64353;SDS011;50681;53.334;-6.536;2023-04-01T06:03:48;11.17;;;3.93;;
64353;SDS011;50681;53.334;-6.536;2023-04-01T06:06:23;7.40;;;2.90;;
64353;SDS011;50681;53.334;-6.536;2023-04-01T06:08:58;10.30;;;3.38;;
64353;SDS011;50681;53.334;-6.536;2023-04-01T06:14:33;7.32;;;3.40;;
64353;SDS011;50681;53.334;-6.536;2023-04-01T06:17:17;8.13;;;2.83;;
64353;SDS011;50681;53.334;-6.536;2023-04-01T06:33:47;6.63;;;2.58;;
64353;SDS011;50681;53.334;-6.536;2023-04-01T06:39:35;5.10;;;2.00;;
64353;SDS011;50681;53.334;-6.536;2023-04-01T06:53:43;9.05;;;2.30;;
64353;SDS011;50681;53.334;-6.536;2023-04-01T06:56:16;5.10;;;2.55;;
64353;SDS011;50681;53.334;-6.536;2023-04-01T06:58:46;7.00;;;3.33;;
64353;SDS011;50681;53.334;-6.536;2023-04-01T07:01:21;7.13;;;2.50;;
64353;SDS011;50681;53.334;-6.536;2023-04-01T07:07:02;5.53;;;1.90;;
64353;SDS011;50681;53.334;-6.536;2023-04-01T07:09:38;3.78;;;2.10;;
64353;SDS011;50681;53.334;-6.536;2023-04-01T07:12:15;3.80;;;1.83;;
64353;SDS011;50681;53.334;-6.536;2023-04-01T07:14:50;4.13;;;1.52;;
64353;SDS011;50681;53.334;-6.536;2023-04-01T07:17:21;5.13;;;1.90;;
64353;SDS011;50681;53.334;-6.536;2023-04-01T07:22:52;7.57;;;2.88;;
64353;SDS011;50681;53.334;-6.536;2023-04-01T07:25:22;3.95;;;2.60;;
64353;SDS011;50681;53.334;-6.536;2023-04-01T07:27:52;6.05;;;2.88;;
64353;SDS011;50681;53.334;-6.536;2023-04-01T07:30:22;3.53;;;1.77;;
64353;SDS011;50681;53.334;-6.536;2023-04-01T07:45:38;7.13;;;3.67;;
64353;SDS011;50681;53.334;-6.536;2023-04-01T07:51:15;5.15;;;2.65;;
64353;SDS011;50681;53.334;-6.536;2023-04-01T07:53:48;3.90;;;2.47;;
64353;SDS011;50681;53.334;-6.536;2023-04-01T08:05:46;7.35;;;3.60;;
64353;SDS011;50681;53.334;-6.536;2023-04-01T08:08:10;8.20;;;4.43;;
64353;SDS011;50681;53.334;-6.536;2023-04-01T08:16:09;6.15;;;2.90;;
64353;SDS011;50681;53.334;-6.536;2023-04-01T08:21:35;5.85;;;2.80;;
64353;SDS011;50681;53.334;-6.536;2023-04-01T08:24:29;3.40;;;1.98;;
64353;SDS011;50681;53.334;-6.536;2023-04-01T08:27:06;2.83;;;1.70;;
64353;SDS011;50681;53.334;-6.536;2023-04-01T08:29:51;3.47;;;1.88;;
64353;SDS011;50681;53.334;-6.536;2023-04-01T08:32:26;3.88;;;1.92;;
64353;SDS011;50681;53.334;-6.536;2023-04-01T08:35:02;4.72;;;1.70;;
64353;SDS011;50681;53.334;-6.536;2023-04-01T08:37:35;2.88;;;1.50;;
64353;SDS011;50681;53.334;-6.536;2023-04-01T08:51:26;1.75;;;1.05;;
64353;SDS011;50681;53.334;-6.536;2023-04-01T08:59:27;2.58;;;1.35;;
64353;SDS011;50681;53.334;-6.536;2023-04-01T09:08:03;2.03;;;0.75;;
64353;SDS011;50681;53.334;-6.536;2023-04-01T09:16:22;1.30;;;0.80;;
64353;SDS011;50681;53.334;-6.536;2023-04-01T09:19:15;2.00;;;1.08;;
64353;SDS011;50681;53.334;-6.536;2023-04-01T09:27:02;3.22;;;1.13;;
64353;SDS011;50681;53.334;-6.536;2023-04-01T09:36:02;3.25;;;1.08;;
64353;SDS011;50681;53.334;-6.536;2023-04-01T09:38:58;2.45;;;1.20;;
64353;SDS011;50681;53.334;-6.536;2023-04-01T09:41:40;2.05;;;0.80;;
64353;SDS011;50681;53.334;-6.536;2023-04-01T09:44:29;1.33;;;0.57;;
64353;SDS011;50681;53.334;-6.536;2023-04-01T09:52:48;1.35;;;0.80;;
64353;SDS011;50681;53.334;-6.536;2023-04-01T10:09:31;2.03;;;0.90;;
64353;SDS011;50681;53.334;-6.536;2023-04-01T10:32:04;3.33;;;1.70;;
64353;SDS011;50681;53.334;-6.536;2023-04-01T10:35:05;3.50;;;1.85;;
64353;SDS011;50681;53.334;-6.536;2023-04-01T10:37:56;5.05;;;2.60;;
64353;SDS011;50681;53.334;-6.536;2023-04-01T10:43:58;3.78;;;2.53;;
64353;SDS011;50681;53.334;-6.536;2023-04-01T11:01:03;4.47;;;2.25;;
64353;SDS011;50681;53.334;-6.536;2023-04-01T11:06:57;6.60;;;2.25;;
64353;SDS011;50681;53.334;-6.536;2023-04-01T11:18:10;3.95;;;1.92;;
64353;SDS011;50681;53.334;-6.536;2023-04-01T11:23:53;3.72;;;2.28;;
64353;SDS011;50681;53.334;-6.536;2023-04-01T11:26:02;3.53;;;2.17;;
64353;SDS011;50681;53.334;-6.536;2023-04-01T11:28:55;4.45;;;2.17;;
64353;SDS011;50681;53.334;-6.536;2023-04-01T11:42:54;4.75;;;1.83;;
64353;SDS011;50681;53.334;-6.536;2023-04-01T11:48:17;5.65;;;1.60;;
64353;SDS011;50681;53.334;-6.536;2023-04-01T11:53:28;3.38;;;1.40;;
64353;SDS011;50681;53.334;-6.536;2023-04-01T11:59:15;5.53;;;1.95;;
64353;SDS011;50681;53.334;-6.536;2023-04-01T12:02:52;3.65;;;1.67;;
64353;SDS011;50681;53.334;-6.536;2023-04-01T12:13:42;3.10;;;1.20;;
64353;SDS011;50681;53.334;-6.536;2023-04-01T12:24:36;2.45;;;1.30;;
64353;SDS011;50681;53.334;-6.536;2023-04-01T12:41:40;3.70;;;1.70;;
64353;SDS011;50681;53.334;-6.536;2023-04-01T13:20:19;3.95;;;1.90;;
64353;SDS011;50681;53.334;-6.536;2023-04-01T13:28:24;2.30;;;1.00;;
64353;SDS011;50681;53.334;-6.536;2023-04-01T13:33:37;4.93;;;2.50;;
64353;SDS011;50681;53.334;-6.536;2023-04-01T13:36:16;6.22;;;3.08;;
64353;SDS011;50681;53.334;-6.536;2023-04-01T13:38:57;10.82;;;4.40;;
64353;SDS011;50681;53.334;-6.536;2023-04-01T13:43:53;11.73;;;6.63;;
64353;SDS011;50681;53.334;-6.536;2023-04-01T13:55:15;23.42;;;10.88;;
64353;SDS011;50681;53.334;-6.536;2023-04-01T13:58:19;19.98;;;9.93;;
64353;SDS011;50681;53.334;-6.536;2023-04-01T14:01:28;9.02;;;4.57;;
64353;SDS011;50681;53.334;-6.536;2023-04-01T14:06:28;10.27;;;4.55;;
64353;SDS011;50681;53.334;-6.536;2023-04-01T14:11:39;3.63;;;2.13;;
64353;SDS011;50681;53.334;-6.536;2023-04-01T14:14:21;7.72;;;3.72;;
64353;SDS011;50681;53.334;-6.536;2023-04-01T14:17:10;15.15;;;6.93;;
64353;SDS011;50681;53.334;-6.536;2023-04-01T14:26:02;9.60;;;3.42;;
64353;SDS011;50681;53.334;-6.536;2023-04-01T14:36:57;5.65;;;2.08;;
64353;SDS011;50681;53.334;-6.536;2023-04-01T14:48:39;7.07;;;1.90;;
64353;SDS011;50681;53.334;-6.536;2023-04-01T14:51:16;57.72;;;2.97;;
64353;SDS011;50681;53.334;-6.536;2023-04-01T15:08:05;5.72;;;1.63;;
64353;SDS011;50681;53.334;-6.536;2023-04-01T15:10:40;3.47;;;1.10;;
64353;SDS011;50681;53.334;-6.536;2023-04-01T15:13:35;12.50;;;4.70;;
64353;SDS011;50681;53.334;-6.536;2023-04-01T15:19:28;7.85;;;2.03;;
64353;SDS011;50681;53.334;-6.536;2023-04-01T15:28:39;10.27;;;3.88;;
64353;SDS011;50681;53.334;-6.536;2023-04-01T15:31:15;7.10;;;2.17;;
64353;SDS011;50681;53.334;-6.536;2023-04-01T15:43:00;9.77;;;3.42;;
64353;SDS011;50681;53.334;-6.536;2023-04-01T15:45:46;12.35;;;3.75;;
64353;SDS011;50681;53.334;-6.536;2023-04-01T16:12:58;8.70;;;3.10;;
64353;SDS011;50681;53.334;-6.536;2023-04-01T16:21:14;7.57;;;2.50;;
64353;SDS011;50681;53.334;-6.536;2023-04-01T16:24:15;9.13;;;3.83;;
64353;SDS011;50681;53.334;-6.536;2023-04-01T16:27:07;4.18;;;1.27;;
64353;SDS011;50681;53.334;-6.536;2023-04-01T16:41:16;9.02;;;2.55;;
64353;SDS011;50681;53.334;-6.536;2023-04-01T16:43:51;7.15;;;2.22;;
64353;SDS011;50681;53.334;-6.536;2023-04-01T16:49:04;8.93;;;2.55;;
64353;SDS011;50681;53.334;-6.536;2023-04-01T16:54:14;11.70;;;1.85;;
64353;SDS011;50681;53.334;-6.536;2023-04-01T16:56:47;12.63;;;5.22;;
64353;SDS011;50681;53.334;-6.536;2023-04-01T16:59:35;9.77;;;2.92;;
64353;SDS011;50681;53.334;-6.536;2023-04-01T17:04:50;15.40;;;6.70;;
64353;SDS011;50681;53.334;-6.536;2023-04-01T17:15:27;13.45;;;5.30;;
64353;SDS011;50681;53.334;-6.536;2023-04-01T17:28:34;11.65;;;2.35;;
64353;SDS011;50681;53.334;-6.536;2023-04-01T17:31:31;14.25;;;4.15;;
64353;SDS011;50681;53.334;-6.536;2023-04-01T17:34:12;12.32;;;4.25;;
64353;SDS011;50681;53.334;-6.536;2023-04-01T17:42:40;12.45;;;4.38;;
64353;SDS011;50681;53.334;-6.536;2023-04-01T17:45:21;12.80;;;4.32;;
64353;SDS011;50681;53.334;-6.536;2023-04-01T17:53:45;8.88;;;5.57;;
64353;SDS011;50681;53.334;-6.536;2023-04-01T17:59:38;12.82;;;3.65;;
64353;SDS011;50681;53.334;-6.536;2023-04-01T18:05:20;12.50;;;4.53;;
64353;SDS011;50681;53.334;-6.536;2023-04-01T18:08:06;15.95;;;4.30;;
64353;SDS011;50681;53.334;-6.536;2023-04-01T18:19:19;16.58;;;4.68;;
64353;SDS011;50681;53.334;-6.536;2023-04-01T18:22:10;14.23;;;4.25;;
64353;SDS011;50681;53.334;-6.536;2023-04-01T18:24:45;11.43;;;4.50;;
64353;SDS011;50681;53.334;-6.536;2023-04-01T18:27:40;10.23;;;3.00;;
64353;SDS011;50681;53.334;-6.536;2023-04-01T18:32:49;10.30;;;3.38;;
64353;SDS011;50681;53.334;-6.536;2023-04-01T18:35:28;17.60;;;4.93;;
64353;SDS011;50681;53.334;-6.536;2023-04-01T18:43:37;15.20;;;6.05;;
64353;SDS011;50681;53.334;-6.536;2023-04-01T18:57:41;21.13;;;5.82;;
64353;SDS011;50681;53.334;-6.536;2023-04-01T19:17:37;12.68;;;5.45;;
64353;SDS011;50681;53.334;-6.536;2023-04-01T19:25:49;19.17;;;4.80;;
64353;SDS011;50681;53.334;-6.536;2023-04-01T19:36:45;14.88;;;5.63;;
64353;SDS011;50681;53.334;-6.536;2023-04-01T19:44:44;13.48;;;4.03;;
64353;SDS011;50681;53.334;-6.536;2023-04-01T19:47:18;18.38;;;4.85;;
64353;SDS011;50681;53.334;-6.536;2023-04-01T19:50:40;15.48;;;4.10;;
64353;SDS011;50681;53.334;-6.536;2023-04-01T19:52:53;17.73;;;5.20;;
64353;SDS011;50681;53.334;-6.536;2023-04-01T20:00:36;26.23;;;4.40;;
64353;SDS011;50681;53.334;-6.536;2023-04-01T20:03:19;14.05;;;4.22;;
64353;SDS011;50681;53.334;-6.536;2023-04-01T20:06:09;23.55;;;5.15;;
64353;SDS011;50681;53.334;-6.536;2023-04-01T20:08:45;16.75;;;6.53;;
64353;SDS011;50681;53.334;-6.536;2023-04-01T20:11:44;14.07;;;3.88;;
64353;SDS011;50681;53.334;-6.536;2023-04-01T20:17:18;23.20;;;8.48;;
64353;SDS011;50681;53.334;-6.536;2023-04-01T20:19:59;16.25;;;5.10;;
64353;SDS011;50681;53.334;-6.536;2023-04-01T20:40:26;15.52;;;6.03;;
64353;SDS011;50681;53.334;-6.536;2023-04-01T21:05:55;20.95;;;6.90;;
64353;SDS011;50681;53.334;-6.536;2023-04-01T21:17:38;23.08;;;6.53;;
64353;SDS011;50681;53.334;-6.536;2023-04-01T21:20:47;26.10;;;4.60;;
64353;SDS011;50681;53.334;-6.536;2023-04-01T21:29:14;32.88;;;3.72;;
64353;SDS011;50681;53.334;-6.536;2023-04-01T21:41:58;13.82;;;3.08;;
64353;SDS011;50681;53.334;-6.536;2023-04-01T21:44:37;10.73;;;2.55;;
64353;SDS011;50681;53.334;-6.536;2023-04-01T22:01:27;23.52;;;3.22;;
64353;SDS011;50681;53.334;-6.536;2023-04-01T22:11:26;11.40;;;1.93;;
64353;SDS011;50681;53.334;-6.536;2023-04-01T22:14:01;7.72;;;2.15;;
64353;SDS011;50681;53.334;-6.536;2023-04-01T22:19:23;8.98;;;2.65;;
64353;SDS011;50681;53.334;-6.536;2023-04-01T22:31:03;9.80;;;2.20;;
64353;SDS011;50681;53.334;-6.536;2023-04-01T22:36:39;19.05;;;3.20;;
64353;SDS011;50681;53.334;-6.536;2023-04-01T22:39:17;20.52;;;2.35;;
64353;SDS011;50681;53.334;-6.536;2023-04-01T22:42:27;13.15;;;2.80;;
64353;SDS011;50681;53.334;-6.536;2023-04-01T22:47:59;19.17;;;3.08;;
64353;SDS011;50681;53.334;-6.536;2023-04-01T22:50:32;18.15;;;2.60;;
64353;SDS011;50681;53.334;-6.536;2023-04-01T22:53:06;31.10;;;3.30;;
64353;SDS011;50681;53.334;-6.536;2023-04-01T22:55:56;19.92;;;3.40;;
64353;SDS011;50681;53.334;-6.536;2023-04-01T22:58:32;28.30;;;2.67;;
64353;SDS011;50681;53.334;-6.536;2023-04-01T23:01:05;14.13;;;2.80;;
64353;SDS011;50681;53.334;-6.536;2023-04-01T23:03:37;16.48;;;3.28;;
64353;SDS011;50681;53.334;-6.536;2023-04-01T23:06:06;15.65;;;3.00;;
64353;SDS011;50681;53.334;-6.536;2023-04-01T23:09:04;13.38;;;2.53;;
64353;SDS011;50681;53.334;-6.536;2023-04-01T23:11:34;22.20;;;3.40;;
64353;SDS011;50681;53.334;-6.536;2023-04-01T23:27:59;14.55;;;2.67;;
64353;SDS011;50681;53.334;-6.536;2023-04-01T23:36:02;22.00;;;3.33;;
64353;SDS011;50681;53.334;-6.536;2023-04-01T23:38:49;17.60;;;3.28;;
64353;SDS011;50681;53.334;-6.536;2023-04-01T23:41:25;22.65;;;2.67;;
64353;SDS011;50681;53.334;-6.536;2023-04-01T23:44:05;18.10;;;3.22;;
64353;SDS011;50681;53.334;-6.536;2023-04-01T23:46:44;20.95;;;3.75;;
64353;SDS011;50681;53.334;-6.536;2023-04-01T23:49:20;17.67;;;2.58;;
64353;SDS011;50681;53.334;-6.536;2023-04-01T23:51:59;18.27;;;2.97;;
64353;SDS011;50681;53.334;-6.536;2023-04-01T23:54:43;20.73;;;3.45;;
64353;SDS011;50681;53.334;-6.536;2023-04-01T23:57:16;23.23;;;3.25;;
